sensor_id;sensor_type;location;lat;lon;timestamp;temperature;humidity
47540;DHT22;33280;52.152;21.052;2023-04-24T00:02:00;13.80;99.90
47540;DHT22;33280;52.152;21.052;2023-04-24T00:04:27;13.70;99.90
47540;DHT22;33280;52.152;21.052;2023-04-24T00:06:54;13.60;99.90
47540;DHT22;33280;52.152;21.052;2023-04-24T00:09:24;13.50;99.90
47540;DHT22;33280;52.152;21.052;2023-04-24T00:11:54;13.40;99.90
47540;DHT22;33280;52.152;21.052;2023-04-24T00:14:21;13.40;99.90
47540;DHT22;33280;52.152;21.052;2023-04-24T00:16:48;13.30;99.90
47540;DHT22;33280;52.152;21.052;2023-04-24T00:19:15;13.30;99.90
47540;DHT22;33280;52.152;21.052;2023-04-24T00:21:43;13.30;99.90
47540;DHT22;33280;52.152;21.052;2023-04-24T00:24:09;13.30;99.90
47540;DHT22;33280;52.152;21.052;2023-04-24T00:26:36;13.30;99.90
47540;DHT22;33280;52.152;21.052;2023-04-24T00:29:03;13.40;99.90
47540;DHT22;33280;52.152;21.052;2023-04-24T00:31:30;13.30;99.90
47540;DHT22;33280;52.152;21.052;2023-04-24T00:33:58;13.30;99.90
47540;DHT22;33280;52.152;21.052;2023-04-24T00:36:24;13.20;99.90
47540;DHT22;33280;52.152;21.052;2023-04-24T00:38:51;13.20;99.90
47540;DHT22;33280;52.152;21.052;2023-04-24T00:41:18;13.10;99.90
47540;DHT22;33280;52.152;21.052;2023-04-24T00:43:45;13.20;99.90
47540;DHT22;33280;52.152;21.052;2023-04-24T00:46:12;13.10;99.90
47540;DHT22;33280;52.152;21.052;2023-04-24T00:48:40;13.10;99.90
47540;DHT22;33280;52.152;21.052;2023-04-24T00:51:08;13.10;99.90
47540;DHT22;33280;52.152;21.052;2023-04-24T00:53:35;13.00;99.90
47540;DHT22;33280;52.152;21.052;2023-04-24T00:56:02;13.00;99.90
47540;DHT22;33280;52.152;21.052;2023-04-24T00:58:29;13.00;99.90
47540;DHT22;33280;52.152;21.052;2023-04-24T01:00:58;13.00;99.90
47540;DHT22;33280;52.152;21.052;2023-04-24T01:03:29;13.10;99.90
47540;DHT22;33280;52.152;21.052;2023-04-24T01:05:59;13.10;99.90
47540;DHT22;33280;52.152;21.052;2023-04-24T01:08:27;13.20;99.90
47540;DHT22;33280;52.152;21.052;2023-04-24T01:10:55;13.20;99.90
47540;DHT22;33280;52.152;21.052;2023-04-24T01:13:23;13.20;99.90
47540;DHT22;33280;52.152;21.052;2023-04-24T01:15:50;13.20;99.90
47540;DHT22;33280;52.152;21.052;2023-04-24T01:18:17;13.10;99.90
47540;DHT22;33280;52.152;21.052;2023-04-24T01:20:45;13.10;99.90
47540;DHT22;33280;52.152;21.052;2023-04-24T01:23:13;13.20;99.90
47540;DHT22;33280;52.152;21.052;2023-04-24T01:25:40;13.20;99.90
47540;DHT22;33280;52.152;21.052;2023-04-24T01:28:07;13.30;99.90
47540;DHT22;33280;52.152;21.052;2023-04-24T01:30:34;13.20;99.90
47540;DHT22;33280;52.152;21.052;2023-04-24T01:33:01;13.10;99.90
47540;DHT22;33280;52.152;21.052;2023-04-24T01:35:28;13.20;99.90
47540;DHT22;33280;52.152;21.052;2023-04-24T01:37:55;13.20;99.90
47540;DHT22;33280;52.152;21.052;2023-04-24T01:40:22;13.20;99.90
47540;DHT22;33280;52.152;21.052;2023-04-24T01:42:49;13.20;99.90
47540;DHT22;33280;52.152;21.052;2023-04-24T01:45:17;13.20;99.90
47540;DHT22;33280;52.152;21.052;2023-04-24T01:47:45;13.20;99.90
47540;DHT22;33280;52.152;21.052;2023-04-24T01:50:13;13.10;99.90
47540;DHT22;33280;52.152;21.052;2023-04-24T01:52:41;13.10;99.90
47540;DHT22;33280;52.152;21.052;2023-04-24T01:55:09;13.10;99.90
47540;DHT22;33280;52.152;21.052;2023-04-24T01:57:37;13.10;99.90
47540;DHT22;33280;52.152;21.052;2023-04-24T02:00:04;13.00;99.90
47540;DHT22;33280;52.152;21.052;2023-04-24T02:02:36;13.00;99.90
47540;DHT22;33280;52.152;21.052;2023-04-24T02:05:06;12.90;99.90
47540;DHT22;33280;52.152;21.052;2023-04-24T02:07:33;12.80;99.90
47540;DHT22;33280;52.152;21.052;2023-04-24T02:10:00;12.80;99.90
47540;DHT22;33280;52.152;21.052;2023-04-24T02:12:27;12.80;99.90
47540;DHT22;33280;52.152;21.052;2023-04-24T02:14:54;12.70;99.90
47540;DHT22;33280;52.152;21.052;2023-04-24T02:17:20;12.70;99.90
47540;DHT22;33280;52.152;21.052;2023-04-24T02:19:47;12.60;99.90
47540;DHT22;33280;52.152;21.052;2023-04-24T02:22:14;12.60;99.90
47540;DHT22;33280;52.152;21.052;2023-04-24T02:24:41;12.60;99.90
47540;DHT22;33280;52.152;21.052;2023-04-24T02:27:08;12.40;99.90
47540;DHT22;33280;52.152;21.052;2023-04-24T02:29:35;12.30;99.90
47540;DHT22;33280;52.152;21.052;2023-04-24T02:32:02;12.20;99.90
47540;DHT22;33280;52.152;21.052;2023-04-24T02:34:29;12.10;99.90
47540;DHT22;33280;52.152;21.052;2023-04-24T02:36:56;12.10;99.90
47540;DHT22;33280;52.152;21.052;2023-04-24T02:39:22;12.00;99.90
47540;DHT22;33280;52.152;21.052;2023-04-24T02:41:49;11.90;99.90
47540;DHT22;33280;52.152;21.052;2023-04-24T02:44:16;11.90;99.90
47540;DHT22;33280;52.152;21.052;2023-04-24T02:46:51;11.90;99.90
47540;DHT22;33280;52.152;21.052;2023-04-24T02:49:20;11.80;99.90
47540;DHT22;33280;52.152;21.052;2023-04-24T02:51:47;11.80;99.90
47540;DHT22;33280;52.152;21.052;2023-04-24T02:54:14;11.70;99.90
47540;DHT22;33280;52.152;21.052;2023-04-24T02:56:40;11.70;99.90
47540;DHT22;33280;52.152;21.052;2023-04-24T02:59:07;11.60;99.90
47540;DHT22;33280;52.152;21.052;2023-04-24T03:01:34;11.60;99.90
47540;DHT22;33280;52.152;21.052;2023-04-24T03:04:02;11.60;99.90
47540;DHT22;33280;52.152;21.052;2023-04-24T03:06:30;11.60;99.90
47540;DHT22;33280;52.152;21.052;2023-04-24T03:08:59;11.40;99.90
47540;DHT22;33280;52.152;21.052;2023-04-24T03:11:26;11.40;99.90
47540;DHT22;33280;52.152;21.052;2023-04-24T03:13:53;11.40;99.90
47540;DHT22;33280;52.152;21.052;2023-04-24T03:16:20;11.40;99.90
47540;DHT22;33280;52.152;21.052;2023-04-24T03:18:48;11.20;99.90
47540;DHT22;33280;52.152;21.052;2023-04-24T03:21:14;11.20;99.90
47540;DHT22;33280;52.152;21.052;2023-04-24T03:23:41;11.10;99.90
47540;DHT22;33280;52.152;21.052;2023-04-24T03:26:08;11.00;99.90
47540;DHT22;33280;52.152;21.052;2023-04-24T03:28:35;11.00;99.90
47540;DHT22;33280;52.152;21.052;2023-04-24T03:31:03;11.00;99.90
47540;DHT22;33280;52.152;21.052;2023-04-24T03:33:30;11.00;99.90
47540;DHT22;33280;52.152;21.052;2023-04-24T03:35:57;11.00;99.90
47540;DHT22;33280;52.152;21.052;2023-04-24T03:38:24;11.00;99.90
47540;DHT22;33280;52.152;21.052;2023-04-24T03:40:51;10.90;99.90
47540;DHT22;33280;52.152;21.052;2023-04-24T03:43:17;10.90;99.90
47540;DHT22;33280;52.152;21.052;2023-04-24T03:45:44;10.90;99.90
47540;DHT22;33280;52.152;21.052;2023-04-24T03:48:12;10.90;99.90
47540;DHT22;33280;52.152;21.052;2023-04-24T03:50:38;10.90;99.90
47540;DHT22;33280;52.152;21.052;2023-04-24T03:53:05;11.00;99.90
47540;DHT22;33280;52.152;21.052;2023-04-24T03:55:33;11.00;99.90
47540;DHT22;33280;52.152;21.052;2023-04-24T03:58:00;11.10;99.90
47540;DHT22;33280;52.152;21.052;2023-04-24T04:00:27;11.10;99.90
47540;DHT22;33280;52.152;21.052;2023-04-24T04:02:54;11.10;99.90
47540;DHT22;33280;52.152;21.052;2023-04-24T04:05:21;11.20;99.90
47540;DHT22;33280;52.152;21.052;2023-04-24T04:07:49;11.20;99.90
47540;DHT22;33280;52.152;21.052;2023-04-24T04:10:15;11.30;99.90
47540;DHT22;33280;52.152;21.052;2023-04-24T04:12:43;11.30;99.90
47540;DHT22;33280;52.152;21.052;2023-04-24T04:15:10;11.40;99.90
47540;DHT22;33280;52.152;21.052;2023-04-24T04:17:37;11.30;99.90
47540;DHT22;33280;52.152;21.052;2023-04-24T04:20:05;11.40;99.90
47540;DHT22;33280;52.152;21.052;2023-04-24T04:22:38;11.40;99.90
47540;DHT22;33280;52.152;21.052;2023-04-24T04:25:08;11.40;99.90
47540;DHT22;33280;52.152;21.052;2023-04-24T04:27:35;11.50;99.90
47540;DHT22;33280;52.152;21.052;2023-04-24T04:30:03;11.60;99.90
47540;DHT22;33280;52.152;21.052;2023-04-24T04:32:31;11.60;99.90
47540;DHT22;33280;52.152;21.052;2023-04-24T04:35:03;11.60;99.90
47540;DHT22;33280;52.152;21.052;2023-04-24T04:37:31;11.60;99.90
47540;DHT22;33280;52.152;21.052;2023-04-24T04:40:00;11.70;99.90
47540;DHT22;33280;52.152;21.052;2023-04-24T04:42:27;11.70;99.90
47540;DHT22;33280;52.152;21.052;2023-04-24T04:44:55;11.80;99.90
47540;DHT22;33280;52.152;21.052;2023-04-24T04:47:24;11.80;99.90
47540;DHT22;33280;52.152;21.052;2023-04-24T04:49:51;11.90;99.90
47540;DHT22;33280;52.152;21.052;2023-04-24T04:52:21;11.90;99.90
47540;DHT22;33280;52.152;21.052;2023-04-24T04:54:51;12.00;99.90
47540;DHT22;33280;52.152;21.052;2023-04-24T04:57:18;12.00;99.90
47540;DHT22;33280;52.152;21.052;2023-04-24T04:59:45;12.10;99.90
47540;DHT22;33280;52.152;21.052;2023-04-24T05:02:13;12.10;99.90
47540;DHT22;33280;52.152;21.052;2023-04-24T05:04:40;12.00;99.90
47540;DHT22;33280;52.152;21.052;2023-04-24T05:07:08;12.10;99.90
47540;DHT22;33280;52.152;21.052;2023-04-24T05:09:35;12.20;99.90
47540;DHT22;33280;52.152;21.052;2023-04-24T05:12:03;12.30;99.90
47540;DHT22;33280;52.152;21.052;2023-04-24T05:14:30;12.40;99.90
47540;DHT22;33280;52.152;21.052;2023-04-24T05:16:57;12.40;99.90
47540;DHT22;33280;52.152;21.052;2023-04-24T05:19:23;12.50;99.90
47540;DHT22;33280;52.152;21.052;2023-04-24T05:21:50;12.60;99.90
47540;DHT22;33280;52.152;21.052;2023-04-24T05:24:18;12.60;99.90
47540;DHT22;33280;52.152;21.052;2023-04-24T05:26:48;12.70;99.90
47540;DHT22;33280;52.152;21.052;2023-04-24T05:29:15;12.90;99.90
47540;DHT22;33280;52.152;21.052;2023-04-24T05:31:42;13.00;99.90
47540;DHT22;33280;52.152;21.052;2023-04-24T05:34:09;13.10;99.90
47540;DHT22;33280;52.152;21.052;2023-04-24T05:36:37;13.20;99.90
47540;DHT22;33280;52.152;21.052;2023-04-24T05:39:04;13.20;99.90
47540;DHT22;33280;52.152;21.052;2023-04-24T05:41:34;13.40;99.90
47540;DHT22;33280;52.152;21.052;2023-04-24T05:44:01;13.40;99.90
47540;DHT22;33280;52.152;21.052;2023-04-24T05:46:28;13.60;99.90
47540;DHT22;33280;52.152;21.052;2023-04-24T05:48:55;13.70;99.90
47540;DHT22;33280;52.152;21.052;2023-04-24T05:51:22;13.70;99.90
47540;DHT22;33280;52.152;21.052;2023-04-24T05:53:49;13.70;99.90
47540;DHT22;33280;52.152;21.052;2023-04-24T05:56:16;13.80;99.90
47540;DHT22;33280;52.152;21.052;2023-04-24T05:58:43;13.90;99.90
47540;DHT22;33280;52.152;21.052;2023-04-24T06:01:10;13.90;99.90
47540;DHT22;33280;52.152;21.052;2023-04-24T06:03:38;13.90;99.90
47540;DHT22;33280;52.152;21.052;2023-04-24T06:06:07;14.00;99.90
47540;DHT22;33280;52.152;21.052;2023-04-24T06:08:35;14.00;99.90
47540;DHT22;33280;52.152;21.052;2023-04-24T06:11:02;14.20;99.90
47540;DHT22;33280;52.152;21.052;2023-04-24T06:13:30;14.20;99.90
47540;DHT22;33280;52.152;21.052;2023-04-24T06:15:57;14.30;99.90
47540;DHT22;33280;52.152;21.052;2023-04-24T06:18:26;14.20;99.90
47540;DHT22;33280;52.152;21.052;2023-04-24T06:20:53;14.40;99.90
47540;DHT22;33280;52.152;21.052;2023-04-24T06:23:21;14.50;99.90
47540;DHT22;33280;52.152;21.052;2023-04-24T06:25:48;14.50;99.90
47540;DHT22;33280;52.152;21.052;2023-04-24T06:28:15;14.50;99.90
47540;DHT22;33280;52.152;21.052;2023-04-24T06:30:42;14.60;99.90
47540;DHT22;33280;52.152;21.052;2023-04-24T06:33:10;14.70;99.90
47540;DHT22;33280;52.152;21.052;2023-04-24T06:35:53;14.80;99.90
47540;DHT22;33280;52.152;21.052;2023-04-24T06:38:20;14.90;99.90
47540;DHT22;33280;52.152;21.052;2023-04-24T06:40:47;14.90;99.90
47540;DHT22;33280;52.152;21.052;2023-04-24T06:43:20;14.90;99.90
47540;DHT22;33280;52.152;21.052;2023-04-24T06:45:47;15.00;99.90
47540;DHT22;33280;52.152;21.052;2023-04-24T06:48:26;15.10;99.90
47540;DHT22;33280;52.152;21.052;2023-04-24T06:50:53;15.30;99.90
47540;DHT22;33280;52.152;21.052;2023-04-24T06:53:20;15.40;99.90
47540;DHT22;33280;52.152;21.052;2023-04-24T06:55:47;15.60;99.90
47540;DHT22;33280;52.152;21.052;2023-04-24T06:58:15;15.70;99.90
47540;DHT22;33280;52.152;21.052;2023-04-24T07:00:42;15.90;99.90
47540;DHT22;33280;52.152;21.052;2023-04-24T07:03:09;16.10;99.90
47540;DHT22;33280;52.152;21.052;2023-04-24T07:05:36;16.40;99.90
47540;DHT22;33280;52.152;21.052;2023-04-24T07:08:23;16.60;99.90
47540;DHT22;33280;52.152;21.052;2023-04-24T07:10:50;16.90;99.90
47540;DHT22;33280;52.152;21.052;2023-04-24T07:13:23;17.00;99.90
47540;DHT22;33280;52.152;21.052;2023-04-24T07:15:53;17.10;99.90
47540;DHT22;33280;52.152;21.052;2023-04-24T07:18:30;17.20;99.90
47540;DHT22;33280;52.152;21.052;2023-04-24T07:20:57;17.30;99.90
47540;DHT22;33280;52.152;21.052;2023-04-24T07:23:24;17.50;99.90
47540;DHT22;33280;52.152;21.052;2023-04-24T07:25:54;17.60;99.90
47540;DHT22;33280;52.152;21.052;2023-04-24T07:40:24;18.60;99.90
47540;DHT22;33280;52.152;21.052;2023-04-24T07:43:12;18.80;99.90
47540;DHT22;33280;52.152;21.052;2023-04-24T07:45:39;18.70;99.90
47540;DHT22;33280;52.152;21.052;2023-04-24T07:48:07;18.80;99.90
47540;DHT22;33280;52.152;21.052;2023-04-24T07:50:35;19.10;99.90
47540;DHT22;33280;52.152;21.052;2023-04-24T07:53:03;19.10;99.90
47540;DHT22;33280;52.152;21.052;2023-04-24T07:55:32;19.30;99.90
47540;DHT22;33280;52.152;21.052;2023-04-24T07:57:59;19.60;99.90
47540;DHT22;33280;52.152;21.052;2023-04-24T08:00:26;19.90;99.90
47540;DHT22;33280;52.152;21.052;2023-04-24T08:02:53;20.10;99.90
47540;DHT22;33280;52.152;21.052;2023-04-24T08:05:20;20.50;99.90
47540;DHT22;33280;52.152;21.052;2023-04-24T08:07:48;21.60;99.90
47540;DHT22;33280;52.152;21.052;2023-04-24T08:10:16;22.40;98.50
47540;DHT22;33280;52.152;21.052;2023-04-24T08:12:43;22.80;97.00
47540;DHT22;33280;52.152;21.052;2023-04-24T08:15:10;23.70;93.40
47540;DHT22;33280;52.152;21.052;2023-04-24T08:17:37;23.60;91.60
47540;DHT22;33280;52.152;21.052;2023-04-24T08:20:05;23.10;91.30
47540;DHT22;33280;52.152;21.052;2023-04-24T08:22:33;23.10;91.80
47540;DHT22;33280;52.152;21.052;2023-04-24T08:25:00;23.30;91.10
47540;DHT22;33280;52.152;21.052;2023-04-24T08:27:28;23.10;91.00
47540;DHT22;33280;52.152;21.052;2023-04-24T08:29:55;22.70;90.80
47540;DHT22;33280;52.152;21.052;2023-04-24T08:32:22;22.40;91.00
47540;DHT22;33280;52.152;21.052;2023-04-24T08:34:49;22.40;91.80
47540;DHT22;33280;52.152;21.052;2023-04-24T08:37:15;22.40;92.00
47540;DHT22;33280;52.152;21.052;2023-04-24T08:39:42;22.20;92.70
47540;DHT22;33280;52.152;21.052;2023-04-24T08:42:11;22.10;92.20
47540;DHT22;33280;52.152;21.052;2023-04-24T08:44:39;22.00;91.80
47540;DHT22;33280;52.152;21.052;2023-04-24T08:47:07;22.00;91.70
47540;DHT22;33280;52.152;21.052;2023-04-24T08:49:36;22.00;91.70
47540;DHT22;33280;52.152;21.052;2023-04-24T08:52:04;21.80;91.60
47540;DHT22;33280;52.152;21.052;2023-04-24T08:54:33;21.80;92.50
47540;DHT22;33280;52.152;21.052;2023-04-24T08:57:02;21.80;92.50
47540;DHT22;33280;52.152;21.052;2023-04-24T08:59:31;21.90;92.50
47540;DHT22;33280;52.152;21.052;2023-04-24T09:02:02;21.80;91.20
47540;DHT22;33280;52.152;21.052;2023-04-24T09:04:30;21.90;91.20
47540;DHT22;33280;52.152;21.052;2023-04-24T09:07:00;21.90;91.70
47540;DHT22;33280;52.152;21.052;2023-04-24T09:09:30;22.20;91.70
47540;DHT22;33280;52.152;21.052;2023-04-24T09:11:58;22.90;90.10
47540;DHT22;33280;52.152;21.052;2023-04-24T09:14:26;23.80;86.80
47540;DHT22;33280;52.152;21.052;2023-04-24T09:16:54;24.50;82.40
47540;DHT22;33280;52.152;21.052;2023-04-24T09:19:21;25.00;78.00
47540;DHT22;33280;52.152;21.052;2023-04-24T09:21:49;25.50;76.60
47540;DHT22;33280;52.152;21.052;2023-04-24T09:24:18;25.80;70.30
47540;DHT22;33280;52.152;21.052;2023-04-24T09:26:46;26.00;70.70
47540;DHT22;33280;52.152;21.052;2023-04-24T09:29:17;26.30;67.60
47540;DHT22;33280;52.152;21.052;2023-04-24T09:31:45;26.70;66.10
47540;DHT22;33280;52.152;21.052;2023-04-24T09:34:13;27.30;67.60
47540;DHT22;33280;52.152;21.052;2023-04-24T09:36:42;27.40;64.20
47540;DHT22;33280;52.152;21.052;2023-04-24T09:39:14;27.20;61.60
47540;DHT22;33280;52.152;21.052;2023-04-24T09:41:54;26.90;61.40
47540;DHT22;33280;52.152;21.052;2023-04-24T09:44:26;27.00;61.80
47540;DHT22;33280;52.152;21.052;2023-04-24T09:46:57;27.50;61.40
47540;DHT22;33280;52.152;21.052;2023-04-24T09:49:29;27.90;61.70
47540;DHT22;33280;52.152;21.052;2023-04-24T09:52:07;28.10;60.40
47540;DHT22;33280;52.152;21.052;2023-04-24T09:54:35;28.50;58.60
47540;DHT22;33280;52.152;21.052;2023-04-24T09:57:04;28.50;58.90
47540;DHT22;33280;52.152;21.052;2023-04-24T09:59:34;28.80;58.30
47540;DHT22;33280;52.152;21.052;2023-04-24T10:02:03;28.70;56.60
47540;DHT22;33280;52.152;21.052;2023-04-24T10:04:54;28.50;56.90
47540;DHT22;33280;52.152;21.052;2023-04-24T10:07:27;28.60;56.00
47540;DHT22;33280;52.152;21.052;2023-04-24T10:09:54;28.70;55.90
47540;DHT22;33280;52.152;21.052;2023-04-24T10:12:21;28.90;55.90
47540;DHT22;33280;52.152;21.052;2023-04-24T10:14:49;28.80;54.90
47540;DHT22;33280;52.152;21.052;2023-04-24T10:17:17;29.00;54.90
47540;DHT22;33280;52.152;21.052;2023-04-24T10:19:45;29.30;54.20
47540;DHT22;33280;52.152;21.052;2023-04-24T10:22:14;29.30;54.00
47540;DHT22;33280;52.152;21.052;2023-04-24T10:24:45;29.70;53.80
47540;DHT22;33280;52.152;21.052;2023-04-24T10:27:14;30.00;53.40
47540;DHT22;33280;52.152;21.052;2023-04-24T10:29:43;30.30;52.50
47540;DHT22;33280;52.152;21.052;2023-04-24T10:32:10;30.40;50.10
47540;DHT22;33280;52.152;21.052;2023-04-24T10:34:38;30.90;50.30
47540;DHT22;33280;52.152;21.052;2023-04-24T10:37:05;31.30;51.10
47540;DHT22;33280;52.152;21.052;2023-04-24T10:39:32;31.10;50.50
47540;DHT22;33280;52.152;21.052;2023-04-24T10:42:00;31.10;50.70
47540;DHT22;33280;52.152;21.052;2023-04-24T10:44:39;31.20;51.00
47540;DHT22;33280;52.152;21.052;2023-04-24T10:47:14;31.00;49.30
47540;DHT22;33280;52.152;21.052;2023-04-24T10:49:41;30.90;48.40
47540;DHT22;33280;52.152;21.052;2023-04-24T10:52:08;31.10;49.10
47540;DHT22;33280;52.152;21.052;2023-04-24T10:57:28;31.70;48.10
47540;DHT22;33280;52.152;21.052;2023-04-24T11:00:14;31.80;47.70
47540;DHT22;33280;52.152;21.052;2023-04-24T11:02:42;32.00;46.90
47540;DHT22;33280;52.152;21.052;2023-04-24T11:05:16;31.40;44.90
47540;DHT22;33280;52.152;21.052;2023-04-24T11:10:45;30.90;45.40
47540;DHT22;33280;52.152;21.052;2023-04-24T11:13:15;31.50;45.90
47540;DHT22;33280;52.152;21.052;2023-04-24T11:15:43;31.50;45.30
47540;DHT22;33280;52.152;21.052;2023-04-24T11:18:16;31.80;44.70
47540;DHT22;33280;52.152;21.052;2023-04-24T11:20:44;31.80;44.40
47540;DHT22;33280;52.152;21.052;2023-04-24T11:23:12;31.60;44.50
47540;DHT22;33280;52.152;21.052;2023-04-24T11:25:41;32.00;44.80
47540;DHT22;33280;52.152;21.052;2023-04-24T11:28:14;31.90;45.30
47540;DHT22;33280;52.152;21.052;2023-04-24T11:30:43;31.70;43.40
47540;DHT22;33280;52.152;21.052;2023-04-24T11:33:10;31.00;43.40
47540;DHT22;33280;52.152;21.052;2023-04-24T11:35:40;30.80;44.80
47540;DHT22;33280;52.152;21.052;2023-04-24T11:38:07;30.70;44.90
47540;DHT22;33280;52.152;21.052;2023-04-24T11:40:38;31.00;44.80
47540;DHT22;33280;52.152;21.052;2023-04-24T11:43:06;31.00;45.30
47540;DHT22;33280;52.152;21.052;2023-04-24T11:45:34;31.40;45.10
47540;DHT22;33280;52.152;21.052;2023-04-24T11:48:02;31.90;45.10
47540;DHT22;33280;52.152;21.052;2023-04-24T11:50:33;32.20;44.20
47540;DHT22;33280;52.152;21.052;2023-04-24T11:53:00;32.60;43.40
47540;DHT22;33280;52.152;21.052;2023-04-24T11:55:29;33.10;42.80
47540;DHT22;33280;52.152;21.052;2023-04-24T11:57:58;32.90;42.30
47540;DHT22;33280;52.152;21.052;2023-04-24T12:00:31;33.00;42.10
47540;DHT22;33280;52.152;21.052;2023-04-24T12:03:09;33.00;43.00
47540;DHT22;33280;52.152;21.052;2023-04-24T12:05:38;33.40;43.10
47540;DHT22;33280;52.152;21.052;2023-04-24T12:08:12;33.90;41.80
47540;DHT22;33280;52.152;21.052;2023-04-24T12:10:53;34.10;41.40
47540;DHT22;33280;52.152;21.052;2023-04-24T12:13:21;34.10;42.30
47540;DHT22;33280;52.152;21.052;2023-04-24T12:15:50;34.00;41.80
47540;DHT22;33280;52.152;21.052;2023-04-24T12:18:24;34.00;41.50
47540;DHT22;33280;52.152;21.052;2023-04-24T12:20:53;33.50;41.80
47540;DHT22;33280;52.152;21.052;2023-04-24T12:23:35;33.30;42.90
47540;DHT22;33280;52.152;21.052;2023-04-24T12:26:04;33.80;42.30
47540;DHT22;33280;52.152;21.052;2023-04-24T12:28:35;33.20;42.40
47540;DHT22;33280;52.152;21.052;2023-04-24T12:31:03;33.20;42.50
47540;DHT22;33280;52.152;21.052;2023-04-24T12:33:34;32.30;39.50
47540;DHT22;33280;52.152;21.052;2023-04-24T12:36:11;32.00;40.20
47540;DHT22;33280;52.152;21.052;2023-04-24T12:38:43;32.10;41.70
47540;DHT22;33280;52.152;21.052;2023-04-24T12:41:13;31.70;41.30
47540;DHT22;33280;52.152;21.052;2023-04-24T12:46:39;26.40;50.30
47540;DHT22;33280;52.152;21.052;2023-04-24T12:49:06;25.90;51.80
47540;DHT22;33280;52.152;21.052;2023-04-24T12:51:33;25.70;52.60
47540;DHT22;33280;52.152;21.052;2023-04-24T12:54:00;25.90;53.00
47540;DHT22;33280;52.152;21.052;2023-04-24T12:56:27;26.20;52.70
47540;DHT22;33280;52.152;21.052;2023-04-24T12:58:55;25.80;53.30
47540;DHT22;33280;52.152;21.052;2023-04-24T13:01:22;25.60;53.80
47540;DHT22;33280;52.152;21.052;2023-04-24T13:03:48;25.90;52.80
47540;DHT22;33280;52.152;21.052;2023-04-24T13:06:16;25.80;52.60
47540;DHT22;33280;52.152;21.052;2023-04-24T13:08:43;25.70;53.00
47540;DHT22;33280;52.152;21.052;2023-04-24T13:11:10;25.80;52.90
47540;DHT22;33280;52.152;21.052;2023-04-24T13:13:37;25.50;53.20
47540;DHT22;33280;52.152;21.052;2023-04-24T13:16:04;25.30;52.80
47540;DHT22;33280;52.152;21.052;2023-04-24T13:18:31;25.00;52.90
47540;DHT22;33280;52.152;21.052;2023-04-24T13:20:58;24.90;53.60
47540;DHT22;33280;52.152;21.052;2023-04-24T13:23:26;24.80;54.10
47540;DHT22;33280;52.152;21.052;2023-04-24T13:25:53;24.60;54.10
47540;DHT22;33280;52.152;21.052;2023-04-24T13:28:21;24.70;55.00
47540;DHT22;33280;52.152;21.052;2023-04-24T13:30:48;25.50;54.70
47540;DHT22;33280;52.152;21.052;2023-04-24T13:33:17;26.30;52.80
47540;DHT22;33280;52.152;21.052;2023-04-24T13:35:44;25.40;53.50
47540;DHT22;33280;52.152;21.052;2023-04-24T13:38:11;24.50;53.70
47540;DHT22;33280;52.152;21.052;2023-04-24T13:40:38;24.60;54.10
47540;DHT22;33280;52.152;21.052;2023-04-24T13:43:05;25.60;53.60
47540;DHT22;33280;52.152;21.052;2023-04-24T13:45:32;26.10;51.80
47540;DHT22;33280;52.152;21.052;2023-04-24T13:47:59;26.90;50.80
47540;DHT22;33280;52.152;21.052;2023-04-24T13:50:28;27.80;49.60
47540;DHT22;33280;52.152;21.052;2023-04-24T13:52:56;28.20;48.00
47540;DHT22;33280;52.152;21.052;2023-04-24T13:55:23;27.90;47.60
47540;DHT22;33280;52.152;21.052;2023-04-24T13:57:50;27.00;48.20
47540;DHT22;33280;52.152;21.052;2023-04-24T14:00:19;25.90;49.70
47540;DHT22;33280;52.152;21.052;2023-04-24T14:02:46;25.20;51.20
47540;DHT22;33280;52.152;21.052;2023-04-24T14:05:14;24.60;51.20
47540;DHT22;33280;52.152;21.052;2023-04-24T14:07:44;24.00;52.20
47540;DHT22;33280;52.152;21.052;2023-04-24T14:10:11;23.90;53.60
47540;DHT22;33280;52.152;21.052;2023-04-24T14:12:38;24.10;53.00
47540;DHT22;33280;52.152;21.052;2023-04-24T14:15:05;24.00;53.10
47540;DHT22;33280;52.152;21.052;2023-04-24T14:17:33;24.40;53.00
47540;DHT22;33280;52.152;21.052;2023-04-24T14:19:59;24.60;53.10
47540;DHT22;33280;52.152;21.052;2023-04-24T14:22:27;24.60;52.90
47540;DHT22;33280;52.152;21.052;2023-04-24T14:24:54;24.60;52.80
47540;DHT22;33280;52.152;21.052;2023-04-24T14:27:20;24.40;52.40
47540;DHT22;33280;52.152;21.052;2023-04-24T14:29:50;24.40;53.10
47540;DHT22;33280;52.152;21.052;2023-04-24T14:32:19;24.40;54.10
47540;DHT22;33280;52.152;21.052;2023-04-24T14:34:46;24.40;54.10
47540;DHT22;33280;52.152;21.052;2023-04-24T14:37:13;24.30;53.40
47540;DHT22;33280;52.152;21.052;2023-04-24T14:39:40;24.00;53.20
47540;DHT22;33280;52.152;21.052;2023-04-24T14:42:07;24.00;54.30
47540;DHT22;33280;52.152;21.052;2023-04-24T14:44:36;24.00;56.60
47540;DHT22;33280;52.152;21.052;2023-04-24T14:47:03;24.00;56.80
47540;DHT22;33280;52.152;21.052;2023-04-24T14:49:31;24.00;56.40
47540;DHT22;33280;52.152;21.052;2023-04-24T14:51:57;24.00;56.00
47540;DHT22;33280;52.152;21.052;2023-04-24T14:54:24;24.00;55.70
47540;DHT22;33280;52.152;21.052;2023-04-24T14:56:51;24.00;55.40
47540;DHT22;33280;52.152;21.052;2023-04-24T14:59:18;24.00;57.20
47540;DHT22;33280;52.152;21.052;2023-04-24T15:01:45;24.00;56.00
47540;DHT22;33280;52.152;21.052;2023-04-24T15:04:12;23.90;56.20
47540;DHT22;33280;52.152;21.052;2023-04-24T15:06:39;23.90;55.60
47540;DHT22;33280;52.152;21.052;2023-04-24T15:09:06;23.90;54.70
47540;DHT22;33280;52.152;21.052;2023-04-24T15:11:33;23.90;54.70
47540;DHT22;33280;52.152;21.052;2023-04-24T15:14:00;23.90;55.90
47540;DHT22;33280;52.152;21.052;2023-04-24T15:16:27;23.90;56.20
47540;DHT22;33280;52.152;21.052;2023-04-24T15:18:55;24.00;57.20
47540;DHT22;33280;52.152;21.052;2023-04-24T15:21:23;24.20;58.40
47540;DHT22;33280;52.152;21.052;2023-04-24T15:23:50;24.90;56.70
47540;DHT22;33280;52.152;21.052;2023-04-24T15:26:22;25.50;54.10
47540;DHT22;33280;52.152;21.052;2023-04-24T15:28:49;26.20;51.50
47540;DHT22;33280;52.152;21.052;2023-04-24T15:31:16;26.70;52.50
47540;DHT22;33280;52.152;21.052;2023-04-24T15:33:43;26.90;51.20
47540;DHT22;33280;52.152;21.052;2023-04-24T15:36:10;26.80;49.80
47540;DHT22;33280;52.152;21.052;2023-04-24T15:38:37;26.60;50.70
47540;DHT22;33280;52.152;21.052;2023-04-24T15:41:04;26.10;52.80
47540;DHT22;33280;52.152;21.052;2023-04-24T15:43:31;25.60;53.30